Time;durP1;ratioP1;P1;durP2;ratioP2;P2;SDS_P1;SDS_P2;PMS_P1;PMS_P2;Temp;Humidity;BMP_temperature;BMP_pressure;BME280_temperature;BME280_humidity;BME280_pressure;Samples;Min_cycle;Max_cycle;Signal;HPM_P1;HPM_P2
2022/11/28 00:01:04;;;;;;;107.20;59.42;;;;;;;0.05;81.34;97944.11;1666880;86;26489;-72
2022/11/28 00:03:31;;;;;;;99.42;54.40;;;;;;;0.03;81.27;97950.03;1667009;86;25770;-76
2022/11/28 00:06:04;;;;;;;90.40;53.85;;;;;;;-0.02;81.29;97953.11;1667120;86;27388;-75
2022/11/28 00:08:31;;;;;;;93.62;53.02;;;;;;;-0.05;81.28;97951.20;1664537;84;25811;-72
2022/11/28 00:10:58;;;;;;;95.55;55.58;;;;;;;-0.07;81.31;97939.86;1667080;86;25858;-73
2022/11/28 00:13:25;;;;;;;111.85;61.28;;;;;;;-0.07;81.24;97939.86;1666922;86;26131;-71
2022/11/28 00:15:56;;;;;;;113.35;59.38;;;;;;;-0.11;81.21;97938.44;1667021;86;25864;-72
2022/11/28 00:18:23;;;;;;;112.25;60.70;;;;;;;-0.27;81.08;97920.84;1667116;86;27452;-71
2022/11/28 00:20:50;;;;;;;114.30;64.17;;;;;;;-0.27;81.08;97920.84;1666996;86;25833;-72
2022/11/28 00:25:46;;;;;;;106.87;58.83;;;;;;;-0.20;81.12;97946.70;1608756;88;26174;-73
2022/11/28 00:28:13;;;;;;;98.42;56.40;;;;;;;-0.22;81.01;97947.80;1608570;87;25909;-73
2022/11/28 00:30:39;;;;;;;98.20;56.23;;;;;;;-0.30;80.80;97943.65;1611933;87;27407;-72
2022/11/28 00:33:06;;;;;;;96.65;56.92;;;;;;;-0.39;80.85;97944.80;1615121;87;25954;-72
2022/11/28 00:35:32;;;;;;;101.72;59.23;;;;;;;-0.40;80.97;97943.59;1615162;87;25823;-72
2022/11/28 00:37:59;;;;;;;105.90;61.08;;;;;;;-0.39;81.09;97946.61;1615245;87;25852;-75
2022/11/28 00:40:26;;;;;;;96.78;57.25;;;;;;;-0.40;80.97;97951.07;1615099;87;25830;-72
2022/11/28 00:42:52;;;;;;;97.42;56.75;;;;;;;-0.46;80.87;97954.22;1615045;87;27418;-73
2022/11/28 00:45:19;;;;;;;95.00;53.55;;;;;;;-0.51;80.86;97951.14;1615101;87;25826;-72
2022/11/28 00:47:47;;;;;;;89.75;54.80;;;;;;;-0.54;80.89;97951.39;1615201;87;25849;-75
2022/11/28 00:50:14;;;;;;;89.70;53.02;;;;;;;-0.56;80.85;97955.12;1615090;87;26600;-74
2022/11/28 00:52:40;;;;;;;83.03;48.78;;;;;;;-0.56;80.91;97954.65;1615011;87;25568;-73
2022/11/28 00:55:08;;;;;;;91.87;51.80;;;;;;;-0.57;80.87;97956.94;1660600;82;27525;-72
2022/11/28 00:57:34;;;;;;;86.55;51.90;;;;;;;-0.59;80.84;97966.83;1726796;82;25878;-70
2022/11/28 01:00:01;;;;;;;102.72;57.08;;;;;;;-0.61;80.89;97962.65;1725728;82;25283;-72
2022/11/28 01:02:28;;;;;;;84.85;48.78;;;;;;;-0.62;80.87;97967.59;1725415;82;25439;-72
2022/11/28 01:04:55;;;;;;;84.10;46.15;;;;;;;-0.66;80.79;97961.70;1725640;82;25933;-71
2022/11/28 01:07:21;;;;;;;77.62;44.20;;;;;;;-0.72;80.74;97957.73;1725769;82;27373;-72
2022/11/28 01:09:48;;;;;;;78.85;44.35;;;;;;;-0.75;80.74;97956.69;1729568;82;25663;-74
2022/11/28 01:12:14;;;;;;;69.60;40.88;;;;;;;-0.75;80.79;97959.33;1709181;82;25867;-72
2022/11/28 01:14:41;;;;;;;74.70;43.35;;;;;;;-0.77;80.76;97955.97;1725898;82;25801;-73
2022/11/28 01:17:08;;;;;;;72.12;43.40;;;;;;;-0.78;80.82;97956.09;1789403;77;25850;-75
2022/11/28 01:19:34;;;;;;;74.40;44.13;;;;;;;-0.78;80.82;97946.81;1797798;77;27823;-72
2022/11/28 01:22:01;;;;;;;78.30;44.95;;;;;;;-0.77;80.90;97947.17;1803565;77;25862;-72
2022/11/28 01:24:27;;;;;;;77.50;45.45;;;;;;;-0.77;80.99;97937.41;1844774;77;25280;-75
2022/11/28 01:26:54;;;;;;;75.10;44.25;;;;;;;-0.76;81.01;97938.25;1811507;77;26222;-76
2022/11/28 01:29:21;;;;;;;67.40;38.75;;;;;;;-0.76;81.07;97929.81;1845193;77;25735;-71
2022/11/28 01:31:48;;;;;;;66.10;39.33;;;;;;;-0.75;81.12;97930.17;1845077;77;27461;-74
2022/11/28 01:34:15;;;;;;;61.92;37.33;;;;;;;-0.74;81.21;97927.87;1811646;77;26323;-70
2022/11/28 01:36:42;;;;;;;67.35;39.75;;;;;;;-0.70;81.27;97933.74;1818033;76;25689;-71
2022/11/28 01:39:09;;;;;;;72.30;42.53;;;;;;;-0.69;81.31;97926.16;1830889;77;25691;-74
2022/11/28 01:41:36;;;;;;;70.70;38.90;;;;;;;-0.70;81.39;97917.84;1797734;77;25387;-73
2022/11/28 01:44:20;;;;;;;59.73;36.20;;;;;;;-0.66;81.48;97917.95;1797788;76;27372;-74
2022/11/28 01:46:47;;;;;;;63.65;37.78;;;;;;;-0.63;81.49;97911.55;1797776;76;25740;-72
2022/11/28 01:49:25;;;;;;;63.92;38.95;;;;;;;-0.61;81.48;97910.46;1830948;77;25268;-73
2022/11/28 01:51:56;;;;;;;69.85;39.20;;;;;;;-0.60;81.53;97909.46;1823478;77;25718;-70
2022/11/28 01:54:25;;;;;;;63.73;37.75;;;;;;;-0.60;81.62;97913.44;1844847;77;25513;-72
2022/11/28 01:56:59;;;;;;;59.08;36.40;;;;;;;-0.57;81.71;97903.06;1835760;77;27445;-72
2022/11/28 01:59:31;;;;;;;57.88;34.43;;;;;;;-0.55;81.72;97903.78;1798005;77;25660;-72
2022/11/28 02:01:58;;;;;;;66.33;38.42;;;;;;;-0.54;81.73;97904.14;1805779;77;25705;-72
2022/11/28 02:04:28;;;;;;;72.40;40.58;;;;;;;-0.52;81.76;97902.20;1829479;77;26117;-71
2022/11/28 02:06:55;;;;;;;71.62;42.58;;;;;;;-0.50;81.78;97898.45;1830916;77;25612;-73
2022/11/28 02:09:22;;;;;;;72.40;41.65;;;;;;;-0.49;81.74;97895.31;1806131;77;27350;-72
2022/11/28 02:12:29;;;;;;;79.45;44.03;;;;;;;-0.50;81.77;97886.52;1798882;77;25668;-74
2022/11/28 02:15:18;;;;;;;80.10;47.45;;;;;;;-0.47;81.80;97880.09;1796589;77;25685;-71
2022/11/28 02:18:30;;;;;;;78.15;45.52;;;;;;;-0.46;81.82;97881.29;1823821;77;25648;-73
2022/11/28 02:21:29;;;;;;;69.25;39.20;;;;;;;-0.46;81.79;97869.36;1805381;76;25693;-74
2022/11/28 02:24:36;;;;;;;61.28;36.17;;;;;;;-0.47;81.78;97862.85;1727189;82;27466;-72
2022/11/28 02:27:26;;;;;;;63.83;37.55;;;;;;;-0.46;81.77;97853.44;1727073;81;25651;-71
2022/11/28 02:30:19;;;;;;;54.67;33.88;;;;;;;-0.44;81.76;97857.30;1727095;83;25857;-71
2022/11/28 02:33:07;;;;;;;53.95;32.90;;;;;;;-0.45;81.77;97853.80;1701623;82;25789;-72
2022/11/28 02:35:41;;;;;;;47.90;30.12;;;;;;;-0.44;81.81;97853.31;1698208;82;25738;-72
2022/11/28 02:38:37;;;;;;;49.40;29.52;;;;;;;-0.43;81.86;97851.86;1699549;82;27384;-75
2022/11/28 02:41:23;;;;;;;45.08;29.32;;;;;;;-0.43;81.86;97853.67;1701837;82;25744;-72
2022/11/28 02:44:08;;;;;;;49.13;30.43;;;;;;;-0.45;81.90;97849.82;1672388;85;25758;-72
2022/11/28 02:46:58;;;;;;;49.67;29.40;;;;;;;-0.43;81.90;97855.00;1671614;85;25750;-73
2022/11/28 02:49:39;;;;;;;49.77;29.82;;;;;;;-0.44;81.99;97855.48;1672921;85;25778;-76
2022/11/28 02:52:20;;;;;;;47.65;30.43;;;;;;;-0.42;82.04;97854.87;1601614;89;27399;-72
2022/11/28 02:54:50;;;;;;;49.38;31.48;;;;;;;-0.44;82.02;97851.98;1560636;90;26030;-74
2022/11/28 02:57:17;;;;;;;52.93;31.77;;;;;;;-0.43;82.08;97850.53;1569936;90;25804;-72
2022/11/28 02:59:48;;;;;;;52.20;33.30;;;;;;;-0.41;82.06;97845.94;1560948;90;26199;-72
2022/11/28 03:02:22;;;;;;;53.40;35.53;;;;;;;-0.40;82.03;97846.78;1591963;90;25748;-73
2022/11/28 03:05:22;;;;;;;46.35;29.60;;;;;;;-0.39;82.06;97838.70;1635227;87;27402;-72
2022/11/28 03:08:18;;;;;;;41.10;27.93;;;;;;;-0.39;81.97;97838.70;1635835;87;25493;-76
2022/11/28 03:10:50;;;;;;;42.70;27.22;;;;;;;-0.41;81.97;97837.98;1587025;89;25851;-72
2022/11/28 03:13:38;;;;;;;44.15;26.40;;;;;;;-0.47;81.90;97829.70;1590383;89;25940;-71
2022/11/28 03:16:28;;;;;;;43.23;27.77;;;;;;;-0.47;81.98;97833.20;1592845;89;26037;-73
2022/11/28 03:19:03;;;;;;;40.98;26.37;;;;;;;-0.49;81.96;97832.52;1542764;92;28303;-72
2022/11/28 03:21:41;;;;;;;35.43;23.77;;;;;;;-0.51;82.05;97837.10;1498790;94;25928;-73
2022/11/28 03:24:16;;;;;;;39.08;23.30;;;;;;;-0.49;82.09;97830.34;1501527;95;26005;-71
2022/11/28 03:27:03;;;;;;;36.80;23.25;;;;;;;-0.48;82.12;97830.19;1498978;95;25794;-71
2022/11/28 03:29:36;;;;;;;37.28;22.80;;;;;;;-0.44;82.12;97832.09;1501438;94;25615;-71
2022/11/28 03:32:08;;;;;;;34.83;21.85;;;;;;;-0.42;82.12;97831.00;1501439;95;27412;-75
2022/11/28 03:34:40;;;;;;;38.45;23.67;;;;;;;-0.42;82.05;97832.81;1456836;98;25895;-71
2022/11/28 03:37:20;;;;;;;34.25;22.10;;;;;;;-0.40;82.05;97827.73;1457115;98;25886;-72
2022/11/28 03:39:52;;;;;;;37.25;25.57;;;;;;;-0.39;82.10;97825.44;1457019;98;25929;-76
2022/11/28 03:42:27;;;;;;;35.35;24.52;;;;;;;-0.38;82.09;97820.48;1456933;98;25896;-75
2022/11/28 03:45:13;;;;;;;37.45;25.62;;;;;;;-0.37;82.09;97816.86;1457101;98;27676;-73
2022/11/28 03:47:44;;;;;;;37.85;22.98;;;;;;;-0.35;82.08;97820.68;1520631;91;25406;-76
2022/11/28 03:50:15;;;;;;;31.75;20.55;;;;;;;-0.34;82.03;97821.52;1570759;89;25807;-72
2022/11/28 03:52:47;;;;;;;33.95;21.85;;;;;;;-0.34;82.04;97817.06;1570005;89;25847;-72
2022/11/28 03:55:21;;;;;;;33.88;21.90;;;;;;;-0.35;82.01;97819.36;1572219;86;26184;-71
2022/11/28 03:58:10;;;;;;;34.70;21.10;;;;;;;-0.32;82.10;97822.23;1635685;85;28227;-73
2022/11/28 04:00:45;;;;;;;31.90;20.70;;;;;;;-0.29;82.11;97814.02;1698320;84;25961;-72
2022/11/28 04:03:41;;;;;;;33.67;20.75;;;;;;;-0.27;82.08;97808.94;1662865;84;26107;-73
2022/11/28 04:06:19;;;;;;;31.85;22.20;;;;;;;-0.25;82.07;97816.77;1660547;84;25889;-74
2022/11/28 04:09:08;;;;;;;31.27;20.72;;;;;;;-0.26;82.09;97802.66;1659375;85;25517;-72
2022/11/28 04:11:54;;;;;;;31.93;20.52;;;;;;;-0.25;82.04;97803.50;1660916;84;27438;-72
2022/11/28 04:14:31;;;;;;;33.45;20.12;;;;;;;-0.24;82.07;97799.36;1660918;85;25391;-72
2022/11/28 04:17:15;;;;;;;33.58;21.97;;;;;;;-0.23;82.06;97792.24;1621081;87;25784;-71
2022/11/28 04:19:53;;;;;;;34.85;20.43;;;;;;;-0.21;82.08;97790.30;1592912;89;25796;-71
2022/11/28 04:22:28;;;;;;;35.52;22.85;;;;;;;-0.20;82.09;97790.17;1583579;89;26050;-70
2022/11/28 04:25:03;;;;;;;37.70;21.37;;;;;;;-0.20;82.06;97790.17;1589745;89;27346;-71
2022/11/28 04:27:39;;;;;;;33.85;21.00;;;;;;;-0.18;82.14;97790.03;1595526;89;25801;-72
2022/11/28 04:30:09;;;;;;;34.30;20.40;;;;;;;-0.19;82.13;97790.52;1591755;89;25754;-72
2022/11/28 04:32:39;;;;;;;35.98;21.68;;;;;;;-0.19;82.15;97789.20;1656707;86;25921;-72
2022/11/28 04:35:14;;;;;;;39.48;22.27;;;;;;;-0.19;82.19;97793.17;1657921;86;25854;-72
2022/11/28 04:37:45;;;;;;;35.45;22.73;;;;;;;-0.17;82.29;97786.41;1661254;86;27462;-75
2022/11/28 04:40:13;;;;;;;32.20;20.68;;;;;;;-0.19;82.23;97783.05;1657862;86;25334;-72
2022/11/28 04:42:50;;;;;;;36.75;21.62;;;;;;;-0.18;82.22;97783.41;1660538;86;25776;-75
2022/11/28 04:45:37;;;;;;;35.83;21.50;;;;;;;-0.16;82.30;97782.78;1658458;86;25775;-72
2022/11/28 04:48:04;;;;;;;36.08;23.90;;;;;;;-0.15;82.28;97780.00;1650126;86;25961;-75
2022/11/28 04:50:55;;;;;;;35.20;22.65;;;;;;;-0.12;82.28;97784.20;1645718;86;45622;-72
2022/11/28 04:53:34;;;;;;;33.75;21.52;;;;;;;-0.13;82.22;97778.06;1638337;86;25872;-74
2022/11/28 04:56:09;;;;;;;31.07;19.23;;;;;;;-0.11;82.25;97780.55;1609346;87;25868;-72
2022/11/28 04:58:40;;;;;;;32.42;21.33;;;;;;;-0.10;82.26;97786.20;1624603;88;26276;-72
2022/11/28 05:01:10;;;;;;;34.60;21.80;;;;;;;-0.08;82.31;97782.94;1618728;86;25991;-74
2022/11/28 05:03:39;;;;;;;33.42;21.42;;;;;;;-0.06;82.27;97780.99;1609927;89;28249;-71
2022/11/28 05:06:07;;;;;;;34.90;22.42;;;;;;;-0.08;82.24;97781.13;1609281;89;25847;-71
2022/11/28 05:08:34;;;;;;;30.65;20.60;;;;;;;-0.08;82.30;97781.61;1609888;89;25843;-72
2022/11/28 05:11:01;;;;;;;34.55;19.73;;;;;;;-0.05;82.31;97785.33;1609443;89;25813;-72
2022/11/28 05:13:27;;;;;;;29.50;19.05;;;;;;;-0.05;82.29;97781.34;1600887;89;25820;-72
2022/11/28 05:15:54;;;;;;;28.95;17.67;;;;;;;-0.05;82.24;97774.71;1586223;90;27479;-74
2022/11/28 05:18:20;;;;;;;30.08;18.12;;;;;;;-0.04;82.27;97771.92;1585293;90;25791;-71
2022/11/28 05:20:47;;;;;;;30.80;18.32;;;;;;;-0.02;82.26;97775.77;1589090;87;26076;-73
2022/11/28 05:23:13;;;;;;;25.90;17.60;;;;;;;0.00;82.28;97772.50;1665189;86;25840;-75
2022/11/28 05:25:40;;;;;;;34.98;19.07;;;;;;;0.01;82.21;97780.78;1669367;85;25832;-72
2022/11/28 05:28:08;;;;;;;29.72;17.98;;;;;;;0.01;82.21;97774.16;1653270;85;28302;-72
2022/11/28 05:30:35;;;;;;;25.82;17.75;;;;;;;0.02;82.20;97779.81;1645817;85;25776;-75
2022/11/28 05:33:02;;;;;;;29.32;18.92;;;;;;;0.01;82.20;97778.13;1646112;85;25863;-72
2022/11/28 05:35:29;;;;;;;31.55;18.98;;;;;;;0.00;82.17;97779.14;1665276;85;25438;-72
2022/11/28 05:37:55;;;;;;;32.17;20.43;;;;;;;0.00;82.17;97777.81;1646252;85;25899;-72
2022/11/28 05:40:22;;;;;;;34.33;20.62;;;;;;;-0.02;82.14;97779.27;1665426;85;28172;-73
2022/11/28 05:42:49;;;;;;;33.80;20.92;;;;;;;-0.01;82.14;97778.30;1646020;85;25399;-72
2022/11/28 05:45:15;;;;;;;29.02;20.32;;;;;;;0.00;82.09;97773.83;1719830;81;25702;-72
2022/11/28 05:47:42;;;;;;;33.45;20.77;;;;;;;0.00;82.09;97777.81;1738341;81;25710;-74
2022/11/28 05:50:09;;;;;;;29.65;20.05;;;;;;;-0.02;82.02;97774.45;1759773;81;25681;-72
2022/11/28 05:52:36;;;;;;;31.52;20.62;;;;;;;-0.03;81.96;97774.09;1738407;81;27371;-72
2022/11/28 05:55:03;;;;;;;30.25;19.90;;;;;;;-0.04;81.90;97772.41;1760820;79;26972;-71
2022/11/28 05:57:31;;;;;;;32.90;21.27;;;;;;;-0.07;81.88;97767.37;1772748;79;25752;-72
2022/11/28 06:00:01;;;;;;;32.83;20.08;;;;;;;-0.08;81.88;97771.00;1779939;79;25673;-71
2022/11/28 06:02:27;;;;;;;34.35;21.37;;;;;;;-0.07;81.85;97771.34;1765725;79;25843;-72
2022/11/28 06:04:54;;;;;;;38.17;23.05;;;;;;;-0.10;81.79;97775.59;1774137;79;27413;-72
2022/11/28 06:07:21;;;;;;;35.13;22.10;;;;;;;-0.12;81.77;97772.27;1797047;79;25774;-72
2022/11/28 06:09:47;;;;;;;35.30;23.15;;;;;;;-0.14;81.75;97768.91;1768792;79;25744;-72
2022/11/28 06:12:14;;;;;;;38.63;22.82;;;;;;;-0.15;81.74;97770.72;1781214;79;25615;-72
2022/11/28 06:14:41;;;;;;;33.70;22.30;;;;;;;-0.16;81.75;97765.54;1771630;79;25970;-72
2022/11/28 06:17:07;;;;;;;35.00;22.85;;;;;;;-0.18;81.78;97768.81;1765628;79;27369;-71
2022/11/28 06:19:34;;;;;;;36.85;23.25;;;;;;;-0.20;81.79;97769.42;1765616;79;25662;-71
2022/11/28 06:22:00;;;;;;;33.08;22.65;;;;;;;-0.20;81.84;97768.09;1775730;79;25525;-72
2022/11/28 06:24:27;;;;;;;38.33;23.32;;;;;;;-0.20;81.85;97772.08;1777224;79;25713;-73
2022/11/28 06:26:54;;;;;;;37.63;23.12;;;;;;;-0.20;81.88;97767.62;1795243;79;25634;-74
2022/11/28 06:29:21;;;;;;;40.28;24.27;;;;;;;-0.20;81.92;97770.75;1779767;79;28309;-71
2022/11/28 06:31:47;;;;;;;39.18;24.43;;;;;;;-0.20;81.96;97773.41;1769949;79;25698;-74
2022/11/28 06:34:14;;;;;;;42.10;25.27;;;;;;;-0.18;81.97;97768.33;1782463;79;25660;-72
2022/11/28 06:36:42;;;;;;;42.48;27.22;;;;;;;-0.15;82.02;97776.02;1767206;79;25632;-73
2022/11/28 06:39:13;;;;;;;36.77;25.00;;;;;;;-0.11;82.00;97773.42;1785222;79;25972;-71
2022/11/28 06:41:39;;;;;;;46.48;28.38;;;;;;;-0.09;82.01;97774.14;1705095;82;28168;-75
2022/11/28 06:44:06;;;;;;;52.75;29.80;;;;;;;-0.06;82.10;97773.03;1705152;82;25769;-75
2022/11/28 06:46:33;;;;;;;48.13;31.02;;;;;;;-0.01;82.16;97774.31;1705075;83;25294;-70
2022/11/28 06:48:59;;;;;;;46.70;28.32;;;;;;;-0.02;82.13;97769.14;1705204;82;26264;-71
2022/11/28 06:51:26;;;;;;;45.65;29.42;;;;;;;-0.04;82.17;97777.23;1705330;82;25745;-72
2022/11/28 06:53:53;;;;;;;49.80;29.55;;;;;;;-0.06;82.23;97775.69;1704612;83;28573;-72
2022/11/28 06:56:21;;;;;;;44.77;30.57;;;;;;;-0.06;82.25;97780.99;1705009;83;26605;-72
2022/11/28 06:58:56;;;;;;;48.20;28.65;;;;;;;-0.07;82.32;97776.66;1705097;83;25853;-72
2022/11/28 07:01:26;;;;;;;48.95;30.68;;;;;;;-0.06;82.40;97779.18;1703140;82;26534;-71
2022/11/28 07:03:53;;;;;;;48.85;30.10;;;;;;;-0.01;82.42;97778.78;1705299;83;25891;-72
2022/11/28 07:06:21;;;;;;;52.03;31.85;;;;;;;0.03;82.43;97781.98;1705062;82;28590;-72
2022/11/28 07:08:48;;;;;;;47.25;30.57;;;;;;;0.05;82.46;97778.70;1705191;82;25760;-72
2022/11/28 07:11:24;;;;;;;46.68;27.80;;;;;;;0.07;82.50;97776.27;1705191;82;25806;-72
2022/11/28 07:13:51;;;;;;;45.80;28.98;;;;;;;0.11;82.47;97779.02;1705335;82;25804;-72
2022/11/28 07:16:25;;;;;;;46.23;28.90;;;;;;;0.15;82.55;97779.07;1705089;82;25895;-73
2022/11/28 07:18:53;;;;;;;44.45;28.10;;;;;;;0.20;82.51;97775.53;1650188;86;27549;-72
2022/11/28 07:21:20;;;;;;;46.68;27.40;;;;;;;0.24;82.53;97772.92;1650405;86;25736;-74
2022/11/28 07:23:47;;;;;;;41.25;27.40;;;;;;;0.28;82.49;97774.34;1650537;86;25864;-72
2022/11/28 07:26:18;;;;;;;41.25;25.95;;;;;;;0.31;82.43;97767.92;1650441;86;25760;-72
2022/11/28 07:28:45;;;;;;;42.27;25.30;;;;;;;0.31;82.46;97764.78;1650445;86;25816;-73
2022/11/28 07:31:18;;;;;;;39.38;24.43;;;;;;;0.34;82.48;97759.20;1650387;86;28425;-75
2022/11/28 07:33:48;;;;;;;38.88;24.45;;;;;;;0.41;82.48;97762.61;1650402;86;25828;-74
2022/11/28 07:36:22;;;;;;;39.08;24.07;;;;;;;0.49;82.56;97766.72;1650312;86;25836;-71
2022/11/28 07:38:54;;;;;;;42.95;26.07;;;;;;;0.57;82.64;97762.41;1683940;84;25509;-73
2022/11/28 07:41:21;;;;;;;37.42;24.72;;;;;;;0.68;82.64;97768.91;1704984;84;25877;-73
2022/11/28 07:43:49;;;;;;;38.78;25.72;;;;;;;0.76;82.53;97772.17;1704555;84;27497;-75
2022/11/28 07:46:17;;;;;;;39.60;25.37;;;;;;;0.79;82.37;97769.24;1704780;84;25901;-72
2022/11/28 07:48:46;;;;;;;40.30;25.27;;;;;;;0.82;82.43;97761.48;1704934;84;25768;-73
2022/11/28 07:51:18;;;;;;;40.92;26.20;;;;;;;0.87;82.50;97765.86;1704923;84;25913;-74
2022/11/28 07:53:45;;;;;;;37.63;25.77;;;;;;;0.92;82.41;97770.28;1704827;84;30283;-71
2022/11/28 07:56:15;;;;;;;40.35;24.52;;;;;;;1.04;82.50;97762.48;1704810;84;27444;-73
2022/11/28 07:58:46;;;;;;;39.63;25.15;;;;;;;1.15;82.45;97764.14;1704558;84;25801;-72
2022/11/28 08:01:17;;;;;;;38.13;24.20;;;;;;;1.28;82.39;97760.67;1703925;84;25865;-75
2022/11/28 08:03:45;;;;;;;45.25;25.97;;;;;;;1.41;82.38;97758.53;1620147;88;26227;-72
2022/11/28 08:06:15;;;;;;;45.67;26.35;;;;;;;1.54;82.31;97755.55;1620302;88;25912;-72
2022/11/28 08:08:42;;;;;;;39.78;23.50;;;;;;;1.68;82.14;97755.07;1621389;88;28069;-73
2022/11/28 08:11:09;;;;;;;33.35;21.65;;;;;;;1.83;82.05;97754.06;1620285;88;25708;-73
2022/11/28 08:13:38;;;;;;;36.28;22.65;;;;;;;1.99;81.94;97749.77;1621392;88;25929;-72
2022/11/28 08:16:12;;;;;;;34.75;21.05;;;;;;;2.09;81.61;97753.20;1657015;84;25821;-75
2022/11/28 08:18:40;;;;;;;29.48;18.02;;;;;;;2.23;81.63;97747.03;1622614;87;25872;-71
2022/11/28 08:21:10;;;;;;;26.87;17.12;;;;;;;2.37;81.36;97758.50;1626034;87;27569;-75
2022/11/28 08:23:39;;;;;;;29.80;18.52;;;;;;;2.46;81.11;97753.09;1634452;87;25751;-74
2022/11/28 08:26:09;;;;;;;22.40;15.90;;;;;;;2.62;81.13;97748.91;1628770;87;25825;-72
2022/11/28 08:28:37;;;;;;;26.87;17.85;;;;;;;2.82;81.04;97753.06;1625348;87;26201;-75
2022/11/28 08:31:26;;;;;;;26.00;17.32;;;;;;;3.02;80.87;97749.73;1629718;86;25786;-75
2022/11/28 08:33:58;;;;;;;28.42;16.85;;;;;;;3.21;80.61;97754.36;1606779;86;27479;-72
2022/11/28 08:36:24;;;;;;;28.75;15.43;;;;;;;3.30;80.07;97753.07;1626738;86;25751;-72
2022/11/28 08:38:51;;;;;;;25.35;16.17;;;;;;;3.43;80.34;97753.48;1617602;86;25885;-75
2022/11/28 08:41:21;;;;;;;20.23;13.85;;;;;;;3.60;80.10;97748.09;1629448;86;25856;-72
2022/11/28 08:43:50;;;;;;;22.73;14.85;;;;;;;3.77;79.64;97751.66;1615976;86;25918;-74
2022/11/28 08:46:21;;;;;;;21.50;13.20;;;;;;;3.89;79.52;97741.02;1630732;86;27429;-73
2022/11/28 08:48:50;;;;;;;19.53;13.00;;;;;;;4.06;79.45;97750.44;1614866;86;25965;-74
2022/11/28 08:51:22;;;;;;;21.02;13.98;;;;;;;4.20;79.09;97737.79;1631545;86;25287;-72
2022/11/28 08:53:50;;;;;;;23.22;14.35;;;;;;;4.33;78.78;97736.82;1630351;86;25545;-73
2022/11/28 08:56:17;;;;;;;24.20;14.45;;;;;;;4.50;78.68;97741.17;1600703;88;25835;-71
2022/11/28 08:58:43;;;;;;;19.15;13.35;;;;;;;4.65;78.21;97739.53;1645660;85;27437;-73
2022/11/28 09:01:22;;;;;;;19.77;13.50;;;;;;;4.77;78.14;97728.50;1724842;82;25761;-72
2022/11/28 09:03:49;;;;;;;18.23;12.37;;;;;;;4.93;78.06;97725.83;1746829;82;25715;-72
2022/11/28 09:06:17;;;;;;;21.35;13.05;;;;;;;5.10;77.82;97720.78;1746358;82;26260;-74
2022/11/28 09:08:44;;;;;;;18.12;11.57;;;;;;;5.27;77.58;97723.78;1747928;82;25876;-72
2022/11/28 09:11:16;;;;;;;17.95;12.55;;;;;;;5.42;77.13;97718.06;1746147;82;28216;-72
2022/11/28 09:13:43;;;;;;;19.50;11.90;;;;;;;5.54;76.86;97713.17;1746776;81;25533;-72
2022/11/28 09:16:10;;;;;;;18.07;11.95;;;;;;;5.72;76.78;97704.89;1786670;77;25673;-74
2022/11/28 09:18:37;;;;;;;18.57;11.35;;;;;;;5.89;76.34;97696.32;1797565;77;25649;-74
2022/11/28 09:21:08;;;;;;;20.37;11.50;;;;;;;6.00;75.99;97699.95;1799203;77;25873;-76
2022/11/28 09:23:36;;;;;;;19.65;11.73;;;;;;;6.10;75.64;97693.35;1836448;77;28421;-73
2022/11/28 09:26:10;;;;;;;19.35;11.03;;;;;;;6.22;75.61;97688.93;1835781;76;25643;-73
2022/11/28 09:28:37;;;;;;;17.07;10.93;;;;;;;6.39;75.44;97678.44;1828638;77;25644;-73
2022/11/28 09:31:06;;;;;;;18.12;11.43;;;;;;;6.58;75.11;97673.09;1831747;76;25725;-72
2022/11/28 09:33:34;;;;;;;17.27;10.98;;;;;;;6.72;74.79;97672.31;1834163;76;25715;-71
2022/11/28 09:36:12;;;;;;;14.23;9.40;;;;;;;6.89;74.38;97665.77;1832100;76;27387;-74
2022/11/28 09:38:40;;;;;;;16.42;9.83;;;;;;;6.99;73.89;97668.22;1791427;79;25943;-73
2022/11/28 09:41:32;;;;;;;14.00;9.20;;;;;;;7.03;73.31;97664.97;1792372;79;25699;-75
2022/11/28 09:44:16;;;;;;;14.65;9.40;;;;;;;7.16;73.12;97663.00;1791466;78;26099;-72
2022/11/28 09:46:45;;;;;;;13.18;9.15;;;;;;;7.27;71.95;97666.56;1669413;84;25921;-73
2022/11/28 09:49:38;;;;;;;14.40;9.05;;;;;;;7.36;72.15;97661.45;1669542;84;27378;-73
2022/11/28 09:52:41;;;;;;;14.30;9.85;;;;;;;7.45;71.72;97663.53;1666333;84;25575;-73
2022/11/28 09:55:49;;;;;;;13.65;8.85;;;;;;;7.48;71.50;97657.29;1622385;88;25844;-75
2022/11/28 09:58:40;;;;;;;13.72;8.95;;;;;;;7.45;71.30;97648.25;1622333;88;26170;-72
2022/11/28 10:01:36;;;;;;;11.80;8.23;;;;;;;7.36;70.83;97646.69;1594154;89;25478;-73
2022/11/28 10:04:13;;;;;;;11.90;8.23;;;;;;;7.33;70.83;97644.36;1595899;89;28359;-73
2022/11/28 10:06:54;;;;;;;12.43;8.38;;;;;;;7.51;70.90;97634.06;1595768;89;25942;-73
2022/11/28 10:09:47;;;;;;;9.60;7.50;;;;;;;7.64;70.52;97636.59;1563009;91;25944;-72
2022/11/28 10:12:38;;;;;;;15.58;8.55;;;;;;;7.68;70.11;97640.59;1562991;91;25868;-73
2022/11/28 10:15:31;;;;;;;10.40;6.75;;;;;;;7.52;69.41;97638.42;1560465;91;25752;-73
2022/11/28 10:18:09;;;;;;;9.08;6.22;;;;;;;7.39;69.13;97634.20;1549265;91;27462;-72
2022/11/28 10:20:43;;;;;;;9.28;6.45;;;;;;;7.35;69.05;97639.65;1528161;93;25565;-72
2022/11/28 10:23:24;;;;;;;10.93;7.42;;;;;;;7.39;69.02;97631.52;1543015;91;25799;-73
2022/11/28 10:25:56;;;;;;;8.83;6.47;;;;;;;7.69;68.86;97624.80;1551757;91;25771;-76
2022/11/28 10:28:31;;;;;;;;;;;;;;;7.91;68.12;97622.47;1529514;93;25760;-75
2022/11/28 10:31:39;;;;;;;6.85;4.80;;;;;;;8.10;67.09;97621.02;1553813;90;27428;-73
2022/11/28 10:34:23;;;;;;;7.70;5.87;;;;;;;8.34;67.65;97623.87;1576645;89;25796;-73
2022/11/28 10:37:27;;;;;;;9.38;6.53;;;;;;;8.62;67.08;97620.73;1575317;89;25753;-73
2022/11/28 10:39:55;;;;;;;9.60;6.42;;;;;;;8.83;66.42;97619.36;1617745;88;25828;-73
2022/11/28 10:42:42;;;;;;;9.68;6.90;;;;;;;9.11;66.33;97611.80;1625439;88;25314;-73
2022/11/28 10:45:20;;;;;;;10.30;7.00;;;;;;;9.30;65.55;97608.39;1643792;84;27592;-75
2022/11/28 10:48:11;;;;;;;10.78;7.08;;;;;;;9.38;65.20;97608.25;1773787;79;25808;-75
2022/11/28 10:51:01;;;;;;;10.82;7.35;;;;;;;9.45;63.73;97602.36;1733881;82;25915;-74
2022/11/28 10:53:48;;;;;;;14.50;7.92;;;;;;;9.52;64.71;97601.07;1723144;82;25911;-74
2022/11/28 10:56:54;;;;;;;11.03;7.60;;;;;;;9.80;64.63;97586.97;1628699;86;25836;-74
2022/11/28 11:00:03;;;;;;;12.58;7.55;;;;;;;10.10;64.35;97584.79;1612234;88;27421;-74
2022/11/28 11:02:51;;;;;;;11.10;5.87;;;;;;;10.33;63.78;97577.19;1631955;87;25712;-73
2022/11/28 11:05:23;;;;;;;8.30;5.83;;;;;;;10.35;61.11;97573.77;1591851;90;25990;-77
2022/11/28 11:07:56;;;;;;;7.80;5.62;;;;;;;10.33;61.73;97575.84;1629899;88;26881;-74
2022/11/28 11:10:28;;;;;;;7.60;5.35;;;;;;;10.53;61.47;97570.96;1629881;88;26514;-73
2022/11/28 11:12:55;;;;;;;10.40;6.25;;;;;;;10.62;61.05;97573.80;1628883;88;32500;-76
2022/11/28 11:15:32;;;;;;;7.05;5.70;;;;;;;10.81;60.72;97572.95;1618315;88;25832;-72
2022/11/28 11:18:18;;;;;;;9.68;6.67;;;;;;;10.86;60.75;97565.58;1628384;88;25851;-75
2022/11/28 11:20:45;;;;;;;9.43;6.17;;;;;;;10.75;60.09;97571.06;1613746;88;25803;-74
2022/11/28 11:23:21;;;;;;;6.70;5.58;;;;;;;10.49;60.15;97567.87;1618929;88;25755;-73
2022/11/28 11:25:53;;;;;;;9.38;6.47;;;;;;;10.33;60.06;97579.05;1619398;88;27046;-73
2022/11/28 11:28:37;;;;;;;7.95;6.25;;;;;;;10.32;60.21;97570.13;1582781;90;26269;-74
2022/11/28 11:31:15;;;;;;;11.90;8.23;;;;;;;10.33;59.98;97563.70;1565129;91;25875;-74
2022/11/28 11:33:42;;;;;;;12.33;8.23;;;;;;;10.30;59.84;97562.75;1545849;91;26196;-73
2022/11/28 11:36:28;;;;;;;10.70;7.85;;;;;;;10.17;59.42;97561.34;1564449;91;25942;-75
2022/11/28 11:39:15;;;;;;;11.05;7.42;;;;;;;10.13;59.70;97565.52;1518008;94;27462;-74
2022/11/28 11:42:03;;;;;;;10.25;7.08;;;;;;;10.18;59.52;97556.78;1530212;93;25768;-73
2022/11/28 11:44:33;;;;;;;11.93;7.60;;;;;;;10.12;59.39;97566.55;1490968;95;25964;-76
2022/11/28 11:47:09;;;;;;;8.38;6.72;;;;;;;10.25;59.77;97565.25;1491270;95;25392;-73
2022/11/28 11:49:43;;;;;;;9.73;6.35;;;;;;;10.37;59.44;97559.56;1547175;91;25840;-74
2022/11/28 11:52:22;;;;;;;9.23;6.78;;;;;;;10.41;59.01;97555.39;1545595;92;27259;-73
2022/11/28 11:55:03;;;;;;;10.60;7.25;;;;;;;10.48;59.10;97555.92;1545482;91;25743;-73